sensor_id;sensor_type;location;lat;lon;timestamp;temperature;humidity
43995;DHT22;51687;52.160;5.298;2023-01-01T04:31:16;16.30;58.90
43995;DHT22;51687;52.160;5.298;2023-01-01T04:33:42;16.00;59.80
43995;DHT22;51687;52.160;5.298;2023-01-01T04:36:09;16.00;59.70
43995;DHT22;51687;52.160;5.298;2023-01-01T04:38:36;16.00;60.20
43995;DHT22;51687;52.160;5.298;2023-01-01T04:41:03;16.00;61.00
43995;DHT22;51687;52.160;5.298;2023-01-01T04:43:31;16.00;61.60
43995;DHT22;51687;52.160;5.298;2023-01-01T04:46:02;16.00;62.10
43995;DHT22;51687;52.160;5.298;2023-01-01T04:48:30;16.00;62.70
43995;DHT22;51687;52.160;5.298;2023-01-01T04:51:02;16.00;63.00
43995;DHT22;51687;52.160;5.298;2023-01-01T04:53:32;16.00;63.40
43995;DHT22;51687;52.160;5.298;2023-01-01T04:56:09;16.00;63.70
43995;DHT22;51687;52.160;5.298;2023-01-01T04:58:38;15.90;63.30
43995;DHT22;51687;52.160;5.298;2023-01-01T05:01:06;15.90;63.10
43995;DHT22;51687;52.160;5.298;2023-01-01T05:03:33;15.90;62.90
43995;DHT22;51687;52.160;5.298;2023-01-01T05:06:01;15.80;62.40
43995;DHT22;51687;52.160;5.298;2023-01-01T05:08:29;15.80;61.80
43995;DHT22;51687;52.160;5.298;2023-01-01T05:11:08;15.80;61.50
43995;DHT22;51687;52.160;5.298;2023-01-01T05:13:36;15.80;61.50
43995;DHT22;51687;52.160;5.298;2023-01-01T05:16:05;15.80;61.60
43995;DHT22;51687;52.160;5.298;2023-01-01T05:18:33;15.80;62.00
43995;DHT22;51687;52.160;5.298;2023-01-01T05:21:00;15.80;62.00
43995;DHT22;51687;52.160;5.298;2023-01-01T05:23:28;15.80;62.00
43995;DHT22;51687;52.160;5.298;2023-01-01T05:25:55;15.70;61.90
43995;DHT22;51687;52.160;5.298;2023-01-01T05:28:22;15.70;62.30
43995;DHT22;51687;52.160;5.298;2023-01-01T05:30:50;15.70;61.80
43995;DHT22;51687;52.160;5.298;2023-01-01T05:33:18;15.70;61.40
43995;DHT22;51687;52.160;5.298;2023-01-01T05:35:45;15.70;61.30
43995;DHT22;51687;52.160;5.298;2023-01-01T05:38:11;15.70;60.60
43995;DHT22;51687;52.160;5.298;2023-01-01T05:40:38;15.70;60.60
43995;DHT22;51687;52.160;5.298;2023-01-01T05:43:06;15.70;60.60
43995;DHT22;51687;52.160;5.298;2023-01-01T05:45:33;15.70;60.40
43995;DHT22;51687;52.160;5.298;2023-01-01T05:47:59;15.70;60.30
43995;DHT22;51687;52.160;5.298;2023-01-01T05:50:26;15.70;60.10
43995;DHT22;51687;52.160;5.298;2023-01-01T05:52:53;15.70;60.10
43995;DHT22;51687;52.160;5.298;2023-01-01T05:55:20;15.70;60.00
43995;DHT22;51687;52.160;5.298;2023-01-01T05:57:46;15.70;59.70
43995;DHT22;51687;52.160;5.298;2023-01-01T06:00:13;15.60;59.60
43995;DHT22;51687;52.160;5.298;2023-01-01T06:02:40;15.60;59.30
43995;DHT22;51687;52.160;5.298;2023-01-01T06:05:07;15.70;59.60
43995;DHT22;51687;52.160;5.298;2023-01-01T06:07:34;15.60;58.80
43995;DHT22;51687;52.160;5.298;2023-01-01T06:10:01;15.60;58.90
43995;DHT22;51687;52.160;5.298;2023-01-01T06:12:27;15.60;58.90
43995;DHT22;51687;52.160;5.298;2023-01-01T06:14:54;15.60;58.60
43995;DHT22;51687;52.160;5.298;2023-01-01T06:17:21;15.60;58.30
43995;DHT22;51687;52.160;5.298;2023-01-01T06:19:47;15.60;58.20
43995;DHT22;51687;52.160;5.298;2023-01-01T06:22:14;15.60;57.90
43995;DHT22;51687;52.160;5.298;2023-01-01T06:24:41;15.50;57.90
43995;DHT22;51687;52.160;5.298;2023-01-01T06:27:07;15.50;58.20
43995;DHT22;51687;52.160;5.298;2023-01-01T06:29:34;15.50;58.10
43995;DHT22;51687;52.160;5.298;2023-01-01T06:32:01;15.60;58.10
43995;DHT22;51687;52.160;5.298;2023-01-01T06:34:27;15.50;57.70
43995;DHT22;51687;52.160;5.298;2023-01-01T06:36:54;15.50;57.90
43995;DHT22;51687;52.160;5.298;2023-01-01T06:39:26;15.40;57.90
43995;DHT22;51687;52.160;5.298;2023-01-01T06:41:53;15.40;58.00
43995;DHT22;51687;52.160;5.298;2023-01-01T06:44:20;15.40;58.20
43995;DHT22;51687;52.160;5.298;2023-01-01T06:46:46;15.40;58.10
43995;DHT22;51687;52.160;5.298;2023-01-01T06:49:13;15.40;57.70
43995;DHT22;51687;52.160;5.298;2023-01-01T06:51:41;15.50;57.70
43995;DHT22;51687;52.160;5.298;2023-01-01T06:54:09;15.50;57.30
43995;DHT22;51687;52.160;5.298;2023-01-01T06:56:36;15.40;57.70
43995;DHT22;51687;52.160;5.298;2023-01-01T06:59:04;15.40;57.20
43995;DHT22;51687;52.160;5.298;2023-01-01T07:01:32;15.40;57.20
43995;DHT22;51687;52.160;5.298;2023-01-01T07:04:03;15.40;56.90
43995;DHT22;51687;52.160;5.298;2023-01-01T07:06:32;15.40;56.90
43995;DHT22;51687;52.160;5.298;2023-01-01T07:09:00;15.40;56.60
43995;DHT22;51687;52.160;5.298;2023-01-01T07:11:27;15.40;56.60
43995;DHT22;51687;52.160;5.298;2023-01-01T07:13:54;15.40;56.60
43995;DHT22;51687;52.160;5.298;2023-01-01T07:16:21;15.40;56.40
43995;DHT22;51687;52.160;5.298;2023-01-01T07:18:49;15.40;56.30
43995;DHT22;51687;52.160;5.298;2023-01-01T07:23:56;15.40;56.30
43995;DHT22;51687;52.160;5.298;2023-01-01T07:26:24;15.40;56.20
43995;DHT22;51687;52.160;5.298;2023-01-01T07:28:52;15.40;56.20
43995;DHT22;51687;52.160;5.298;2023-01-01T07:31:19;15.40;56.30
43995;DHT22;51687;52.160;5.298;2023-01-01T07:33:46;15.40;56.20
43995;DHT22;51687;52.160;5.298;2023-01-01T07:36:13;15.40;56.30
43995;DHT22;51687;52.160;5.298;2023-01-01T07:38:40;15.40;55.90
43995;DHT22;51687;52.160;5.298;2023-01-01T07:41:06;15.30;56.10
43995;DHT22;51687;52.160;5.298;2023-01-01T07:43:33;15.30;56.20
43995;DHT22;51687;52.160;5.298;2023-01-01T07:46:00;15.30;56.50
43995;DHT22;51687;52.160;5.298;2023-01-01T07:48:27;15.30;56.70
43995;DHT22;51687;52.160;5.298;2023-01-01T07:50:54;15.30;56.40
43995;DHT22;51687;52.160;5.298;2023-01-01T07:53:20;15.40;56.30
43995;DHT22;51687;52.160;5.298;2023-01-01T07:55:47;15.30;56.70
43995;DHT22;51687;52.160;5.298;2023-01-01T07:58:14;15.30;56.80
43995;DHT22;51687;52.160;5.298;2023-01-01T08:00:45;15.30;56.80
43995;DHT22;51687;52.160;5.298;2023-01-01T08:03:13;15.30;56.90
43995;DHT22;51687;52.160;5.298;2023-01-01T08:05:40;15.30;56.80
43995;DHT22;51687;52.160;5.298;2023-01-01T08:08:08;15.30;57.00
43995;DHT22;51687;52.160;5.298;2023-01-01T08:10:34;15.30;57.20
43995;DHT22;51687;52.160;5.298;2023-01-01T08:13:03;15.20;57.20
43995;DHT22;51687;52.160;5.298;2023-01-01T08:15:30;15.20;57.30
43995;DHT22;51687;52.160;5.298;2023-01-01T08:18:00;15.20;57.10
43995;DHT22;51687;52.160;5.298;2023-01-01T08:20:28;15.20;57.00
43995;DHT22;51687;52.160;5.298;2023-01-01T08:22:55;15.10;57.30
43995;DHT22;51687;52.160;5.298;2023-01-01T08:25:30;15.20;57.30
43995;DHT22;51687;52.160;5.298;2023-01-01T08:27:56;15.10;57.00
43995;DHT22;51687;52.160;5.298;2023-01-01T08:30:23;15.10;56.90
43995;DHT22;51687;52.160;5.298;2023-01-01T08:32:50;15.10;56.90
43995;DHT22;51687;52.160;5.298;2023-01-01T08:35:17;15.10;57.30
43995;DHT22;51687;52.160;5.298;2023-01-01T08:37:43;15.10;57.00
43995;DHT22;51687;52.160;5.298;2023-01-01T08:40:11;15.10;56.90
43995;DHT22;51687;52.160;5.298;2023-01-01T08:42:39;15.10;57.00
43995;DHT22;51687;52.160;5.298;2023-01-01T08:45:06;15.10;56.90
43995;DHT22;51687;52.160;5.298;2023-01-01T08:47:33;15.10;56.90
43995;DHT22;51687;52.160;5.298;2023-01-01T08:50:00;15.10;56.80
43995;DHT22;51687;52.160;5.298;2023-01-01T08:52:26;15.10;56.90
43995;DHT22;51687;52.160;5.298;2023-01-01T08:54:53;15.00;57.00
43995;DHT22;51687;52.160;5.298;2023-01-01T08:57:20;15.00;57.30
43995;DHT22;51687;52.160;5.298;2023-01-01T08:59:46;15.00;57.30
43995;DHT22;51687;52.160;5.298;2023-01-01T09:02:13;15.00;57.40
43995;DHT22;51687;52.160;5.298;2023-01-01T09:04:40;15.00;57.40
43995;DHT22;51687;52.160;5.298;2023-01-01T09:07:07;15.00;57.70
43995;DHT22;51687;52.160;5.298;2023-01-01T09:09:33;15.00;57.50
43995;DHT22;51687;52.160;5.298;2023-01-01T09:12:02;15.00;57.50
43995;DHT22;51687;52.160;5.298;2023-01-01T09:14:34;15.00;57.80
43995;DHT22;51687;52.160;5.298;2023-01-01T09:17:01;15.00;57.90
43995;DHT22;51687;52.160;5.298;2023-01-01T09:19:28;14.90;58.10
43995;DHT22;51687;52.160;5.298;2023-01-01T09:21:55;14.90;58.30
43995;DHT22;51687;52.160;5.298;2023-01-01T09:24:22;14.90;58.20
43995;DHT22;51687;52.160;5.298;2023-01-01T09:26:49;14.90;58.20
43995;DHT22;51687;52.160;5.298;2023-01-01T09:29:16;14.90;58.50
43995;DHT22;51687;52.160;5.298;2023-01-01T09:31:47;14.90;58.60
43995;DHT22;51687;52.160;5.298;2023-01-01T09:34:14;15.00;58.80
43995;DHT22;51687;52.160;5.298;2023-01-01T09:36:41;15.00;58.70
43995;DHT22;51687;52.160;5.298;2023-01-01T09:39:10;15.10;58.80
43995;DHT22;51687;52.160;5.298;2023-01-01T09:47:23;15.10;58.70
43995;DHT22;51687;52.160;5.298;2023-01-01T09:49:53;15.10;58.90
43995;DHT22;51687;52.160;5.298;2023-01-01T09:52:21;15.10;58.90
43995;DHT22;51687;52.160;5.298;2023-01-01T09:54:56;15.10;59.10
43995;DHT22;51687;52.160;5.298;2023-01-01T09:57:28;15.10;59.10
43995;DHT22;51687;52.160;5.298;2023-01-01T09:59:57;15.10;58.90
43995;DHT22;51687;52.160;5.298;2023-01-01T10:03:01;15.20;59.20
43995;DHT22;51687;52.160;5.298;2023-01-01T10:05:55;15.20;59.00
43995;DHT22;51687;52.160;5.298;2023-01-01T10:14:27;15.20;59.00
43995;DHT22;51687;52.160;5.298;2023-01-01T10:16:56;15.10;59.20
43995;DHT22;51687;52.160;5.298;2023-01-01T10:19:44;15.10;59.60
43995;DHT22;51687;52.160;5.298;2023-01-01T10:22:24;15.10;59.80
43995;DHT22;51687;52.160;5.298;2023-01-01T10:25:18;15.10;59.60
43995;DHT22;51687;52.160;5.298;2023-01-01T10:27:52;15.10;59.90
43995;DHT22;51687;52.160;5.298;2023-01-01T10:30:26;15.10;60.00
43995;DHT22;51687;52.160;5.298;2023-01-01T10:32:55;15.10;60.50
43995;DHT22;51687;52.160;5.298;2023-01-01T10:35:48;15.10;60.70
43995;DHT22;51687;52.160;5.298;2023-01-01T10:38:22;15.10;60.80
43995;DHT22;51687;52.160;5.298;2023-01-01T10:40:51;15.10;61.80
43995;DHT22;51687;52.160;5.298;2023-01-01T10:43:19;15.10;61.50
43995;DHT22;51687;52.160;5.298;2023-01-01T10:45:53;15.10;61.80
43995;DHT22;51687;52.160;5.298;2023-01-01T10:48:27;15.10;62.10
43995;DHT22;51687;52.160;5.298;2023-01-01T10:53:40;15.10;62.60
43995;DHT22;51687;52.160;5.298;2023-01-01T11:06:43;15.00;62.60
43995;DHT22;51687;52.160;5.298;2023-01-01T11:09:28;15.10;62.90
43995;DHT22;51687;52.160;5.298;2023-01-01T11:12:07;15.10;63.20
43995;DHT22;51687;52.160;5.298;2023-01-01T11:15:04;15.10;63.90
43995;DHT22;51687;52.160;5.298;2023-01-01T11:17:34;15.10;64.00
43995;DHT22;51687;52.160;5.298;2023-01-01T11:20:03;15.10;63.60
43995;DHT22;51687;52.160;5.298;2023-01-01T11:22:41;15.10;63.60
43995;DHT22;51687;52.160;5.298;2023-01-01T11:27:46;15.20;64.00
43995;DHT22;51687;52.160;5.298;2023-01-01T11:30:25;15.20;64.10
43995;DHT22;51687;52.160;5.298;2023-01-01T11:32:59;15.20;64.20
43995;DHT22;51687;52.160;5.298;2023-01-01T11:35:29;15.20;64.30
43995;DHT22;51687;52.160;5.298;2023-01-01T11:37:57;15.20;64.30
43995;DHT22;51687;52.160;5.298;2023-01-01T11:40:32;15.20;64.50
43995;DHT22;51687;52.160;5.298;2023-01-01T11:43:03;15.20;64.30
43995;DHT22;51687;52.160;5.298;2023-01-01T11:45:38;15.20;64.30
43995;DHT22;51687;52.160;5.298;2023-01-01T11:48:27;15.30;64.60
43995;DHT22;51687;52.160;5.298;2023-01-01T11:51:00;15.30;64.60
43995;DHT22;51687;52.160;5.298;2023-01-01T11:53:33;15.30;64.50
43995;DHT22;51687;52.160;5.298;2023-01-01T11:56:16;15.30;64.60
43995;DHT22;51687;52.160;5.298;2023-01-01T11:59:03;15.30;64.90
43995;DHT22;51687;52.160;5.298;2023-01-01T12:01:49;15.20;65.10
43995;DHT22;51687;52.160;5.298;2023-01-01T12:07:01;15.20;65.50
43995;DHT22;51687;52.160;5.298;2023-01-01T12:09:54;15.20;65.70
43995;DHT22;51687;52.160;5.298;2023-01-01T12:12:27;15.20;66.50
43995;DHT22;51687;52.160;5.298;2023-01-01T12:17:54;15.20;66.00
43995;DHT22;51687;52.160;5.298;2023-01-01T12:22:57;15.20;66.20
43995;DHT22;51687;52.160;5.298;2023-01-01T12:26:02;15.30;66.30
43995;DHT22;51687;52.160;5.298;2023-01-01T12:28:33;15.30;66.30
43995;DHT22;51687;52.160;5.298;2023-01-01T12:31:49;15.30;66.30
43995;DHT22;51687;52.160;5.298;2023-01-01T12:34:35;15.30;66.20
43995;DHT22;51687;52.160;5.298;2023-01-01T12:37:12;15.40;66.20
43995;DHT22;51687;52.160;5.298;2023-01-01T12:39:53;15.40;65.80
43995;DHT22;51687;52.160;5.298;2023-01-01T12:42:44;15.40;65.70
43995;DHT22;51687;52.160;5.298;2023-01-01T12:45:39;15.40;65.50
43995;DHT22;51687;52.160;5.298;2023-01-01T12:51:38;15.30;65.00
43995;DHT22;51687;52.160;5.298;2023-01-01T12:57:34;15.20;65.00
43995;DHT22;51687;52.160;5.298;2023-01-01T13:00:10;15.30;65.20
43995;DHT22;51687;52.160;5.298;2023-01-01T13:02:49;15.30;64.40
43995;DHT22;51687;52.160;5.298;2023-01-01T13:05:23;15.20;63.90
43995;DHT22;51687;52.160;5.298;2023-01-01T13:07:54;15.20;64.10
43995;DHT22;51687;52.160;5.298;2023-01-01T13:10:27;15.20;63.80
43995;DHT22;51687;52.160;5.298;2023-01-01T13:12:55;15.20;63.80
43995;DHT22;51687;52.160;5.298;2023-01-01T13:15:43;15.20;63.80
43995;DHT22;51687;52.160;5.298;2023-01-01T13:20:45;15.30;63.40
43995;DHT22;51687;52.160;5.298;2023-01-01T13:34:41;15.40;62.80
43995;DHT22;51687;52.160;5.298;2023-01-01T13:39:51;15.40;62.60
43995;DHT22;51687;52.160;5.298;2023-01-01T13:45:21;15.40;62.80
43995;DHT22;51687;52.160;5.298;2023-01-01T13:48:41;15.50;62.70
43995;DHT22;51687;52.160;5.298;2023-01-01T14:03:16;15.40;62.50
43995;DHT22;51687;52.160;5.298;2023-01-01T14:05:57;15.40;62.60
43995;DHT22;51687;52.160;5.298;2023-01-01T14:08:32;15.40;62.70
43995;DHT22;51687;52.160;5.298;2023-01-01T14:11:01;15.40;62.80
43995;DHT22;51687;52.160;5.298;2023-01-01T14:13:29;15.40;62.90
43995;DHT22;51687;52.160;5.298;2023-01-01T14:16:00;15.40;63.00
43995;DHT22;51687;52.160;5.298;2023-01-01T14:18:52;15.50;62.90
43995;DHT22;51687;52.160;5.298;2023-01-01T14:21:22;15.50;62.80
43995;DHT22;51687;52.160;5.298;2023-01-01T14:24:04;15.50;62.80
43995;DHT22;51687;52.160;5.298;2023-01-01T14:26:32;15.50;62.80
43995;DHT22;51687;52.160;5.298;2023-01-01T14:29:05;15.50;62.80
43995;DHT22;51687;52.160;5.298;2023-01-01T14:31:40;15.50;62.80
43995;DHT22;51687;52.160;5.298;2023-01-01T14:34:27;15.50;62.80
43995;DHT22;51687;52.160;5.298;2023-01-01T14:36:56;15.50;62.80
43995;DHT22;51687;52.160;5.298;2023-01-01T14:39:28;15.60;62.80
43995;DHT22;51687;52.160;5.298;2023-01-01T14:42:04;15.70;62.80
43995;DHT22;51687;52.160;5.298;2023-01-01T14:44:52;15.70;62.80
43995;DHT22;51687;52.160;5.298;2023-01-01T14:47:30;15.70;62.80
43995;DHT22;51687;52.160;5.298;2023-01-01T14:52:31;15.70;62.70
43995;DHT22;51687;52.160;5.298;2023-01-01T14:55:01;15.80;62.70
43995;DHT22;51687;52.160;5.298;2023-01-01T14:57:31;15.80;62.70
43995;DHT22;51687;52.160;5.298;2023-01-01T14:59:59;15.80;62.70
43995;DHT22;51687;52.160;5.298;2023-01-01T15:02:28;15.80;62.70
43995;DHT22;51687;52.160;5.298;2023-01-01T15:04:56;15.80;62.80
43995;DHT22;51687;52.160;5.298;2023-01-01T15:07:24;15.80;62.80
43995;DHT22;51687;52.160;5.298;2023-01-01T15:09:53;15.80;62.80
43995;DHT22;51687;52.160;5.298;2023-01-01T15:12:20;15.80;62.70
43995;DHT22;51687;52.160;5.298;2023-01-01T15:14:49;15.80;62.70
43995;DHT22;51687;52.160;5.298;2023-01-01T15:17:17;15.80;62.80
43995;DHT22;51687;52.160;5.298;2023-01-01T15:19:45;15.90;63.00
43995;DHT22;51687;52.160;5.298;2023-01-01T15:22:26;15.80;62.70
43995;DHT22;51687;52.160;5.298;2023-01-01T15:24:53;15.80;62.70
43995;DHT22;51687;52.160;5.298;2023-01-01T15:27:24;15.80;62.70
43995;DHT22;51687;52.160;5.298;2023-01-01T15:29:51;15.80;62.70
43995;DHT22;51687;52.160;5.298;2023-01-01T15:32:30;15.90;62.90
43995;DHT22;51687;52.160;5.298;2023-01-01T15:35:00;15.90;62.90
43995;DHT22;51687;52.160;5.298;2023-01-01T15:37:44;15.90;62.80
43995;DHT22;51687;52.160;5.298;2023-01-01T15:42:43;15.90;62.90
43995;DHT22;51687;52.160;5.298;2023-01-01T15:45:21;15.90;62.90
43995;DHT22;51687;52.160;5.298;2023-01-01T15:47:50;15.90;62.90
43995;DHT22;51687;52.160;5.298;2023-01-01T15:52:48;15.90;62.90
43995;DHT22;51687;52.160;5.298;2023-01-01T15:55:21;15.90;62.80
43995;DHT22;51687;52.160;5.298;2023-01-01T15:57:50;15.90;62.80
43995;DHT22;51687;52.160;5.298;2023-01-01T16:00:22;15.90;62.70
43995;DHT22;51687;52.160;5.298;2023-01-01T16:02:51;15.90;62.60
43995;DHT22;51687;52.160;5.298;2023-01-01T16:05:22;15.90;62.80
43995;DHT22;51687;52.160;5.298;2023-01-01T16:08:04;15.90;62.80
43995;DHT22;51687;52.160;5.298;2023-01-01T16:10:31;15.90;62.70
43995;DHT22;51687;52.160;5.298;2023-01-01T16:12:58;15.90;62.70
43995;DHT22;51687;52.160;5.298;2023-01-01T16:15:25;15.90;62.90
43995;DHT22;51687;52.160;5.298;2023-01-01T16:17:51;15.90;63.50
43995;DHT22;51687;52.160;5.298;2023-01-01T16:20:19;15.90;63.00
43995;DHT22;51687;52.160;5.298;2023-01-01T16:22:48;15.90;63.20
43995;DHT22;51687;52.160;5.298;2023-01-01T16:25:20;15.90;63.10
43995;DHT22;51687;52.160;5.298;2023-01-01T16:27:47;15.90;63.30
43995;DHT22;51687;52.160;5.298;2023-01-01T16:30:14;15.90;63.40
43995;DHT22;51687;52.160;5.298;2023-01-01T16:32:41;15.90;63.30
43995;DHT22;51687;52.160;5.298;2023-01-01T16:35:12;15.90;63.30
43995;DHT22;51687;52.160;5.298;2023-01-01T16:37:38;15.90;63.20
43995;DHT22;51687;52.160;5.298;2023-01-01T16:40:06;15.80;63.10
43995;DHT22;51687;52.160;5.298;2023-01-01T16:42:33;15.80;63.30
43995;DHT22;51687;52.160;5.298;2023-01-01T16:45:00;15.70;63.40
43995;DHT22;51687;52.160;5.298;2023-01-01T16:47:27;15.70;63.60
43995;DHT22;51687;52.160;5.298;2023-01-01T16:49:53;15.70;63.60
43995;DHT22;51687;52.160;5.298;2023-01-01T16:52:20;15.70;63.60
43995;DHT22;51687;52.160;5.298;2023-01-01T16:54:46;15.70;63.60
43995;DHT22;51687;52.160;5.298;2023-01-01T16:57:13;15.70;63.60
43995;DHT22;51687;52.160;5.298;2023-01-01T16:59:40;15.70;63.60
43995;DHT22;51687;52.160;5.298;2023-01-01T17:02:10;15.70;63.60
43995;DHT22;51687;52.160;5.298;2023-01-01T17:04:37;15.70;63.60
43995;DHT22;51687;52.160;5.298;2023-01-01T17:07:03;15.80;63.60
43995;DHT22;51687;52.160;5.298;2023-01-01T17:09:30;15.70;63.50
43995;DHT22;51687;52.160;5.298;2023-01-01T17:11:57;15.70;63.50
43995;DHT22;51687;52.160;5.298;2023-01-01T17:14:23;15.70;63.60
43995;DHT22;51687;52.160;5.298;2023-01-01T17:16:50;15.70;63.60
43995;DHT22;51687;52.160;5.298;2023-01-01T17:19:21;15.70;63.60
43995;DHT22;51687;52.160;5.298;2023-01-01T17:21:48;15.70;63.60
43995;DHT22;51687;52.160;5.298;2023-01-01T17:24:17;15.70;63.60
43995;DHT22;51687;52.160;5.298;2023-01-01T17:26:44;15.70;63.60
43995;DHT22;51687;52.160;5.298;2023-01-01T17:29:11;15.70;63.70
43995;DHT22;51687;52.160;5.298;2023-01-01T17:31:37;15.80;63.50
43995;DHT22;51687;52.160;5.298;2023-01-01T17:34:04;15.70;63.60
43995;DHT22;51687;52.160;5.298;2023-01-01T17:36:31;15.80;63.70
43995;DHT22;51687;52.160;5.298;2023-01-01T17:38:58;15.80;63.70
43995;DHT22;51687;52.160;5.298;2023-01-01T17:41:24;15.80;64.00
43995;DHT22;51687;52.160;5.298;2023-01-01T17:43:51;15.80;64.70
43995;DHT22;51687;52.160;5.298;2023-01-01T17:46:26;15.80;64.60
43995;DHT22;51687;52.160;5.298;2023-01-01T17:48:54;15.80;65.00
43995;DHT22;51687;52.160;5.298;2023-01-01T17:51:21;15.80;65.30
43995;DHT22;51687;52.160;5.298;2023-01-01T17:53:48;15.80;65.70
43995;DHT22;51687;52.160;5.298;2023-01-01T17:56:16;15.80;66.00
43995;DHT22;51687;52.160;5.298;2023-01-01T17:58:44;15.80;66.00
43995;DHT22;51687;52.160;5.298;2023-01-01T18:01:26;15.80;66.10
43995;DHT22;51687;52.160;5.298;2023-01-01T18:04:02;15.80;66.70
43995;DHT22;51687;52.160;5.298;2023-01-01T18:06:31;15.80;66.80
43995;DHT22;51687;52.160;5.298;2023-01-01T18:09:04;15.80;66.90
43995;DHT22;51687;52.160;5.298;2023-01-01T18:11:31;15.80;67.10
43995;DHT22;51687;52.160;5.298;2023-01-01T18:14:01;15.80;66.60
43995;DHT22;51687;52.160;5.298;2023-01-01T18:16:29;15.80;67.00
43995;DHT22;51687;52.160;5.298;2023-01-01T18:18:56;15.90;67.20
43995;DHT22;51687;52.160;5.298;2023-01-01T18:21:26;15.90;67.40
43995;DHT22;51687;52.160;5.298;2023-01-01T18:23:54;15.90;67.50
43995;DHT22;51687;52.160;5.298;2023-01-01T18:26:23;15.90;67.70
43995;DHT22;51687;52.160;5.298;2023-01-01T18:28:56;15.90;67.80
43995;DHT22;51687;52.160;5.298;2023-01-01T18:31:25;15.90;67.90
43995;DHT22;51687;52.160;5.298;2023-01-01T18:33:52;15.90;67.80
43995;DHT22;51687;52.160;5.298;2023-01-01T18:36:22;15.90;67.70
43995;DHT22;51687;52.160;5.298;2023-01-01T18:38:56;15.90;67.60
43995;DHT22;51687;52.160;5.298;2023-01-01T18:41:45;15.90;67.80
43995;DHT22;51687;52.160;5.298;2023-01-01T18:44:21;15.90;67.70
43995;DHT22;51687;52.160;5.298;2023-01-01T18:49:34;15.90;68.00
43995;DHT22;51687;52.160;5.298;2023-01-01T18:54:32;15.90;68.00
43995;DHT22;51687;52.160;5.298;2023-01-01T18:57:19;15.90;68.20
43995;DHT22;51687;52.160;5.298;2023-01-01T18:59:56;15.90;68.20
43995;DHT22;51687;52.160;5.298;2023-01-01T19:02:37;15.90;68.20
43995;DHT22;51687;52.160;5.298;2023-01-01T19:08:17;15.90;68.30
43995;DHT22;51687;52.160;5.298;2023-01-01T19:10:50;15.90;68.20
43995;DHT22;51687;52.160;5.298;2023-01-01T19:16:25;15.90;68.30
43995;DHT22;51687;52.160;5.298;2023-01-01T19:18:59;15.90;68.40
43995;DHT22;51687;52.160;5.298;2023-01-01T19:21:26;15.90;68.50
43995;DHT22;51687;52.160;5.298;2023-01-01T19:23:57;15.90;68.60
43995;DHT22;51687;52.160;5.298;2023-01-01T19:26:36;15.90;68.70
43995;DHT22;51687;52.160;5.298;2023-01-01T19:29:19;15.90;68.70
43995;DHT22;51687;52.160;5.298;2023-01-01T19:31:48;15.90;68.90
43995;DHT22;51687;52.160;5.298;2023-01-01T19:34:15;15.90;68.90
43995;DHT22;51687;52.160;5.298;2023-01-01T19:36:42;15.90;68.30
43995;DHT22;51687;52.160;5.298;2023-01-01T19:39:09;15.90;68.60
43995;DHT22;51687;52.160;5.298;2023-01-01T19:41:36;15.90;69.00
43995;DHT22;51687;52.160;5.298;2023-01-01T19:44:04;15.90;69.10
43995;DHT22;51687;52.160;5.298;2023-01-01T19:46:35;15.90;69.30
43995;DHT22;51687;52.160;5.298;2023-01-01T19:49:02;15.90;69.10
43995;DHT22;51687;52.160;5.298;2023-01-01T19:51:29;15.90;69.30
43995;DHT22;51687;52.160;5.298;2023-01-01T19:53:56;15.90;69.50
43995;DHT22;51687;52.160;5.298;2023-01-01T19:56:22;15.90;69.50
43995;DHT22;51687;52.160;5.298;2023-01-01T19:58:49;15.80;69.50
43995;DHT22;51687;52.160;5.298;2023-01-01T20:01:16;15.90;69.50
43995;DHT22;51687;52.160;5.298;2023-01-01T20:03:43;15.90;70.10
43995;DHT22;51687;52.160;5.298;2023-01-01T20:06:26;15.80;69.60
43995;DHT22;51687;52.160;5.298;2023-01-01T20:08:52;15.80;69.60
43995;DHT22;51687;52.160;5.298;2023-01-01T20:11:20;15.80;69.70
43995;DHT22;51687;52.160;5.298;2023-01-01T20:13:47;15.80;69.70
43995;DHT22;51687;52.160;5.298;2023-01-01T20:16:13;15.80;69.70
43995;DHT22;51687;52.160;5.298;2023-01-01T20:18:40;15.80;69.80
43995;DHT22;51687;52.160;5.298;2023-01-01T20:21:07;15.80;69.80
43995;DHT22;51687;52.160;5.298;2023-01-01T20:23:53;15.80;69.90
43995;DHT22;51687;52.160;5.298;2023-01-01T20:26:20;15.80;69.90
43995;DHT22;51687;52.160;5.298;2023-01-01T20:28:49;15.90;69.90
43995;DHT22;51687;52.160;5.298;2023-01-01T20:31:34;15.80;69.90
43995;DHT22;51687;52.160;5.298;2023-01-01T20:34:01;15.80;69.90
43995;DHT22;51687;52.160;5.298;2023-01-01T20:36:28;15.90;70.00
43995;DHT22;51687;52.160;5.298;2023-01-01T20:39:13;15.80;69.90
43995;DHT22;51687;52.160;5.298;2023-01-01T20:41:40;15.90;70.00
43995;DHT22;51687;52.160;5.298;2023-01-01T20:44:06;15.80;70.30
43995;DHT22;51687;52.160;5.298;2023-01-01T20:46:33;15.80;70.00
43995;DHT22;51687;52.160;5.298;2023-01-01T20:49:01;15.80;70.10
43995;DHT22;51687;52.160;5.298;2023-01-01T20:51:28;15.80;70.10
43995;DHT22;51687;52.160;5.298;2023-01-01T20:53:55;15.80;70.10
43995;DHT22;51687;52.160;5.298;2023-01-01T20:56:21;15.80;70.10
43995;DHT22;51687;52.160;5.298;2023-01-01T20:58:48;15.80;70.10
43995;DHT22;51687;52.160;5.298;2023-01-01T21:01:24;15.80;70.10
43995;DHT22;51687;52.160;5.298;2023-01-01T21:03:51;15.80;70.00
43995;DHT22;51687;52.160;5.298;2023-01-01T21:06:19;15.80;70.10
43995;DHT22;51687;52.160;5.298;2023-01-01T21:08:50;15.80;70.10
43995;DHT22;51687;52.160;5.298;2023-01-01T21:11:17;15.80;70.00
43995;DHT22;51687;52.160;5.298;2023-01-01T21:13:44;15.70;70.10
43995;DHT22;51687;52.160;5.298;2023-01-01T21:16:31;15.70;70.20
43995;DHT22;51687;52.160;5.298;2023-01-01T21:19:00;15.70;70.40
43995;DHT22;51687;52.160;5.298;2023-01-01T21:21:32;15.70;70.30
43995;DHT22;51687;52.160;5.298;2023-01-01T21:24:21;15.70;70.40
43995;DHT22;51687;52.160;5.298;2023-01-01T21:26:58;15.70;70.50
43995;DHT22;51687;52.160;5.298;2023-01-01T21:29:30;15.60;70.40
43995;DHT22;51687;52.160;5.298;2023-01-01T21:32:15;15.60;70.50
43995;DHT22;51687;52.160;5.298;2023-01-01T21:34:44;15.60;70.90
43995;DHT22;51687;52.160;5.298;2023-01-01T21:37:26;15.50;70.80
43995;DHT22;51687;52.160;5.298;2023-01-01T21:40:51;15.50;71.10
43995;DHT22;51687;52.160;5.298;2023-01-01T21:43:37;15.50;71.30
43995;DHT22;51687;52.160;5.298;2023-01-01T21:51:21;15.40;72.10
43995;DHT22;51687;52.160;5.298;2023-01-01T21:53:50;15.40;72.10
43995;DHT22;51687;52.160;5.298;2023-01-01T21:56:35;15.40;72.10
43995;DHT22;51687;52.160;5.298;2023-01-01T21:59:17;15.30;72.10
43995;DHT22;51687;52.160;5.298;2023-01-01T22:04:24;15.30;72.10
43995;DHT22;51687;52.160;5.298;2023-01-01T22:06:58;15.30;72.20
43995;DHT22;51687;52.160;5.298;2023-01-01T22:12:18;15.30;72.40